createdAt,value
2024-01-15T00:01:54.535Z,0.61
2024-01-15T00:03:56.305Z,0.61
2024-01-15T00:05:58.133Z,0.61
2024-01-15T00:07:59.869Z,0.60
2024-01-15T00:10:01.698Z,0.59
2024-01-15T00:12:03.973Z,0.58
2024-01-15T00:14:05.818Z,0.60
2024-01-15T00:16:07.614Z,0.60
2024-01-15T00:18:09.607Z,0.60
2024-01-15T00:20:11.870Z,0.60
2024-01-15T00:22:13.628Z,0.63
2024-01-15T00:24:15.440Z,0.69
2024-01-15T00:26:17.256Z,0.73
2024-01-15T00:28:19.039Z,0.79
2024-01-15T00:30:20.854Z,0.79
2024-01-15T00:32:22.749Z,0.82
2024-01-15T00:34:24.789Z,0.87
2024-01-15T00:36:27.149Z,0.88
2024-01-15T00:38:28.848Z,0.86
2024-01-15T00:40:30.582Z,0.85
2024-01-15T00:42:32.399Z,0.85
2024-01-15T00:44:34.197Z,0.91
2024-01-15T00:46:44.864Z,0.94
2024-01-15T00:48:46.838Z,0.95
2024-01-15T00:50:48.629Z,0.95
2024-01-15T00:52:50.384Z,0.96
2024-01-15T00:54:52.199Z,0.95
2024-01-15T00:56:53.984Z,0.92
2024-01-15T00:58:55.793Z,0.93
2024-01-15T01:00:57.667Z,0.94
2024-01-15T01:02:59.562Z,0.94
2024-01-15T01:05:01.443Z,0.96
2024-01-15T01:07:03.343Z,0.94
2024-01-15T01:09:05.080Z,0.92
2024-01-15T01:11:08.227Z,0.92
2024-01-15T01:13:10.816Z,0.91
2024-01-15T01:15:12.690Z,0.93
2024-01-15T01:17:14.500Z,0.94
2024-01-15T01:19:16.424Z,0.93
2024-01-15T01:21:18.399Z,0.93
2024-01-15T01:23:20.112Z,0.93
2024-01-15T01:25:21.948Z,0.93
2024-01-15T01:27:23.791Z,0.93
2024-01-15T01:29:25.656Z,0.93
2024-01-15T01:31:27.518Z,0.93
2024-01-15T01:33:29.468Z,0.92
2024-01-15T01:35:31.265Z,0.91
2024-01-15T01:37:33.733Z,0.86
2024-01-15T01:39:35.509Z,0.83
2024-01-15T01:41:37.509Z,0.80
2024-01-15T01:43:39.231Z,0.79
2024-01-15T01:45:41.059Z,0.76
2024-01-15T01:47:43.118Z,0.69
2024-01-15T01:49:45.067Z,0.63
2024-01-15T01:51:48.814Z,0.57
2024-01-15T01:53:51.866Z,0.54
2024-01-15T01:55:54.737Z,0.48
2024-01-15T01:57:57.069Z,0.42
2024-01-15T01:59:59.523Z,0.40
2024-01-15T02:02:02.505Z,0.39
2024-01-15T02:04:05.936Z,0.42
2024-01-15T02:06:07.861Z,0.43
2024-01-15T02:08:09.890Z,0.46
2024-01-15T02:10:11.839Z,0.46
2024-01-15T02:12:13.805Z,0.47
2024-01-15T02:14:16.206Z,0.49
2024-01-15T02:16:18.982Z,0.52
2024-01-15T02:18:21.625Z,0.56
2024-01-15T02:20:23.487Z,0.56
2024-01-15T02:22:25.187Z,0.60
2024-01-15T02:24:27.186Z,0.66
2024-01-15T02:26:29.672Z,0.70
2024-01-15T02:28:31.919Z,0.72
2024-01-15T02:30:34.205Z,0.72
2024-01-15T02:32:35.976Z,0.72
2024-01-15T02:34:37.813Z,0.73
2024-01-15T02:36:39.720Z,0.74
2024-01-15T02:38:42.888Z,0.76
2024-01-15T02:40:46.704Z,0.77
2024-01-15T02:42:48.552Z,0.80
2024-01-15T02:44:50.582Z,0.80
2024-01-15T02:46:52.346Z,0.83
2024-01-15T02:48:54.172Z,0.84
2024-01-15T02:50:55.949Z,0.83
2024-01-15T02:52:57.686Z,0.84
2024-01-15T02:54:59.443Z,0.84
2024-01-15T02:57:01.175Z,0.85
2024-01-15T02:59:02.978Z,0.85
2024-01-15T03:01:05.105Z,0.84
2024-01-15T03:03:07.084Z,0.85
2024-01-15T03:05:09.132Z,0.89
2024-01-15T03:07:10.951Z,0.87
2024-01-15T03:09:12.744Z,0.86
2024-01-15T03:11:14.498Z,0.82
2024-01-15T03:13:16.253Z,0.79
2024-01-15T03:15:19.729Z,0.75
2024-01-15T03:17:21.540Z,0.73
2024-01-15T03:19:23.568Z,0.73
2024-01-15T03:21:25.370Z,0.76
2024-01-15T03:23:27.118Z,0.78
2024-01-15T03:25:28.887Z,0.82
2024-01-15T03:27:30.859Z,0.83
2024-01-15T03:29:32.611Z,0.85
2024-01-15T03:31:34.544Z,0.89
2024-01-15T03:33:36.449Z,0.87
2024-01-15T03:35:38.228Z,0.85
2024-01-15T03:37:40.002Z,0.86
2024-01-15T03:39:41.842Z,0.85
2024-01-15T03:41:43.665Z,0.82
2024-01-15T03:43:45.443Z,0.83
2024-01-15T03:45:47.231Z,0.81
2024-01-15T03:47:49.168Z,0.80
2024-01-15T03:49:51.094Z,0.80
2024-01-15T03:51:52.934Z,0.79
2024-01-15T03:53:54.734Z,0.80
2024-01-15T03:55:56.526Z,0.81
2024-01-15T03:57:58.350Z,0.80
2024-01-15T04:00:00.087Z,0.81
2024-01-15T04:02:01.891Z,0.81
2024-01-15T04:04:03.697Z,0.81
2024-01-15T04:06:06.234Z,0.84
2024-01-15T04:08:08.104Z,0.84
2024-01-15T04:10:10.510Z,0.85
2024-01-15T04:12:12.293Z,0.88
2024-01-15T04:14:14.028Z,0.85
2024-01-15T04:16:15.750Z,0.88
2024-01-15T04:18:19.516Z,0.91
2024-01-15T04:20:23.775Z,0.92
2024-01-15T04:22:28.361Z,0.95
2024-01-15T04:24:30.209Z,0.95
2024-01-15T04:26:31.990Z,0.96
2024-01-15T04:28:33.716Z,0.98
2024-01-15T04:30:35.505Z,1.00
2024-01-15T04:32:37.483Z,1.04
2024-01-15T04:34:39.483Z,1.06
2024-01-15T04:36:42.583Z,1.07
2024-01-15T04:38:44.512Z,1.09
2024-01-15T04:40:46.327Z,1.13
2024-01-15T04:42:48.141Z,1.13
2024-01-15T04:44:49.965Z,1.12
2024-01-15T04:46:51.672Z,1.11
2024-01-15T04:48:53.724Z,1.10
2024-01-15T04:50:55.464Z,1.09
2024-01-15T04:52:57.188Z,1.06
2024-01-15T04:54:58.931Z,1.07
2024-01-15T04:57:00.661Z,1.05
2024-01-15T04:59:02.732Z,1.01
2024-01-15T05:01:05.237Z,1.00
2024-01-15T05:03:07.153Z,0.94
2024-01-15T05:05:09.104Z,0.94
2024-01-15T05:07:10.859Z,0.90
2024-01-15T05:09:13.201Z,0.92
2024-01-15T05:11:14.938Z,0.91
2024-01-15T05:13:16.664Z,0.90
2024-01-15T05:15:18.565Z,0.88
2024-01-15T05:17:20.368Z,0.85
2024-01-15T05:19:22.218Z,0.85
2024-01-15T05:21:23.980Z,0.84
2024-01-15T05:23:25.862Z,0.84
2024-01-15T05:25:27.708Z,0.82
2024-01-15T05:27:29.455Z,0.85
2024-01-15T05:29:31.225Z,0.82
2024-01-15T05:31:33.101Z,0.80
2024-01-15T05:33:34.992Z,0.78
2024-01-15T05:35:36.782Z,0.76
2024-01-15T05:37:38.522Z,0.74
2024-01-15T05:39:40.255Z,0.77
2024-01-15T05:41:42.097Z,0.76
2024-01-15T05:43:43.833Z,0.74
2024-01-15T05:45:46.116Z,0.73
2024-01-15T05:47:48.028Z,0.71
2024-01-15T05:49:49.832Z,0.70
2024-01-15T05:51:52.693Z,0.72
2024-01-15T05:53:54.491Z,0.70
2024-01-15T05:55:57.413Z,0.68
2024-01-15T05:57:59.242Z,0.69
2024-01-15T06:00:01.569Z,0.68
2024-01-15T06:02:03.395Z,0.71
2024-01-15T06:04:05.798Z,0.73
2024-01-15T06:06:07.830Z,0.76
2024-01-15T06:08:09.593Z,0.77
2024-01-15T06:10:11.493Z,0.79
2024-01-15T06:12:13.835Z,0.79
2024-01-15T06:14:15.554Z,0.80
2024-01-15T06:16:18.132Z,0.79
2024-01-15T06:18:20.286Z,0.78
2024-01-15T06:20:22.411Z,0.79
2024-01-15T06:22:24.201Z,0.78
2024-01-15T06:24:26.017Z,0.76
2024-01-15T06:26:27.806Z,0.77
2024-01-15T06:28:29.549Z,0.75
2024-01-15T06:30:31.675Z,0.76
2024-01-15T06:32:33.639Z,0.75
2024-01-15T06:34:35.522Z,0.75
2024-01-15T06:36:37.530Z,0.75
2024-01-15T06:38:39.467Z,0.76
2024-01-15T06:40:46.842Z,0.77
2024-01-15T06:42:49.424Z,0.77
2024-01-15T06:44:51.240Z,0.73
2024-01-15T06:46:53.147Z,0.75
2024-01-15T06:48:55.110Z,0.74
2024-01-15T06:50:56.963Z,0.75
2024-01-15T06:52:58.685Z,0.75
2024-01-15T06:55:00.453Z,0.76
2024-01-15T06:57:02.235Z,0.78
2024-01-15T06:59:04.577Z,0.76
2024-01-15T07:01:07.119Z,0.69
2024-01-15T07:03:09.140Z,0.62
2024-01-15T07:05:11.109Z,0.53
2024-01-15T07:07:13.087Z,0.42
2024-01-15T07:09:14.901Z,0.32
2024-01-15T07:11:16.840Z,0.26
2024-01-15T07:13:18.995Z,0.21
2024-01-15T07:15:20.913Z,0.18
2024-01-15T07:17:22.652Z,0.20
2024-01-15T07:19:24.527Z,0.22
2024-01-15T07:21:26.345Z,0.23
2024-01-15T07:23:31.289Z,0.24
2024-01-15T07:25:33.207Z,0.30
2024-01-15T07:27:35.090Z,0.29
2024-01-15T07:29:39.926Z,0.32
2024-01-15T07:31:41.790Z,0.32
2024-01-15T07:33:43.714Z,0.33
2024-01-15T07:35:45.675Z,0.34
2024-01-15T07:37:47.493Z,0.35
2024-01-15T07:39:49.541Z,0.37
2024-01-15T07:41:51.644Z,0.38
2024-01-15T07:43:53.347Z,0.41
2024-01-15T07:45:55.140Z,0.40
2024-01-15T07:47:57.001Z,0.45
2024-01-15T07:50:03.108Z,0.44
2024-01-15T07:52:07.630Z,0.46
2024-01-15T07:54:09.415Z,0.46
2024-01-15T07:56:11.387Z,0.47
2024-01-15T07:58:16.523Z,0.48
2024-01-15T08:00:19.012Z,0.46
2024-01-15T08:02:20.776Z,0.45
2024-01-15T08:04:23.496Z,0.47
2024-01-15T08:06:25.757Z,0.49
2024-01-15T08:08:27.801Z,0.48
2024-01-15T08:10:30.321Z,0.48
2024-01-15T08:12:32.137Z,0.48
2024-01-15T08:14:33.889Z,0.48
2024-01-15T08:16:35.714Z,0.47
2024-01-15T08:18:37.489Z,0.48
2024-01-15T08:20:39.773Z,0.49
2024-01-15T08:22:41.567Z,0.46
2024-01-15T08:24:43.305Z,0.46
2024-01-15T08:26:45.257Z,0.48
2024-01-15T08:28:47.008Z,0.47
2024-01-15T08:30:48.787Z,0.46
2024-01-15T08:32:50.591Z,0.47
2024-01-15T08:34:53.641Z,0.49
2024-01-15T08:36:55.520Z,0.49
2024-01-15T08:38:57.325Z,0.49
2024-01-15T08:41:01.604Z,0.49
2024-01-15T08:43:03.471Z,0.51
2024-01-15T08:45:05.727Z,0.51
2024-01-15T08:47:07.530Z,0.52
2024-01-15T08:49:09.830Z,0.55
2024-01-15T08:51:11.658Z,0.55
2024-01-15T08:53:14.363Z,0.58
2024-01-15T08:55:16.066Z,0.57
2024-01-15T08:57:17.856Z,0.61
2024-01-15T08:59:25.882Z,0.60
2024-01-15T09:01:27.947Z,0.61
2024-01-15T09:03:29.803Z,0.61
2024-01-15T09:05:31.670Z,0.64
2024-01-15T09:07:33.798Z,0.66
2024-01-15T09:09:36.384Z,0.67
2024-01-15T09:11:38.190Z,0.72
2024-01-15T09:13:39.929Z,0.72
2024-01-15T09:15:46.452Z,0.71
2024-01-15T09:17:48.255Z,0.74
2024-01-15T09:19:50.573Z,0.77
2024-01-15T09:21:52.402Z,0.79
2024-01-15T09:23:54.569Z,0.79
2024-01-15T09:25:56.318Z,0.80
2024-01-15T09:27:58.555Z,0.83
2024-01-15T09:30:00.385Z,0.84
2024-01-15T09:32:04.474Z,0.88
2024-01-15T09:34:06.308Z,0.91
2024-01-15T09:36:08.782Z,0.97
2024-01-15T09:38:10.491Z,1.02
2024-01-15T09:40:18.737Z,1.05
2024-01-15T09:42:22.474Z,1.04
2024-01-15T09:44:24.575Z,1.01
2024-01-15T09:46:26.370Z,0.98
2024-01-15T09:48:28.312Z,0.97
2024-01-15T09:50:30.257Z,0.96
2024-01-15T09:52:32.375Z,0.95
2024-01-15T09:54:34.985Z,0.98
2024-01-15T09:56:36.881Z,0.98
2024-01-15T09:58:39.978Z,0.98
2024-01-15T10:00:45.150Z,0.93
2024-01-15T10:02:47.653Z,0.93
2024-01-15T10:04:49.454Z,0.94
2024-01-15T10:06:53.562Z,0.98
2024-01-15T10:08:57.853Z,0.97
2024-01-15T10:10:59.585Z,0.96
2024-01-15T10:13:01.653Z,0.98
2024-01-15T10:15:03.766Z,1.03
2024-01-15T10:17:16.539Z,1.04
2024-01-15T10:19:18.293Z,1.06
2024-01-15T10:21:20.455Z,1.08
2024-01-15T10:23:22.264Z,1.08
2024-01-15T10:25:27.278Z,1.07
2024-01-15T10:27:29.244Z,1.07
2024-01-15T10:29:30.991Z,1.02
2024-01-15T10:31:32.909Z,0.98
2024-01-15T10:33:35.041Z,0.99
2024-01-15T10:35:37.247Z,0.99
2024-01-15T10:37:39.030Z,0.98
2024-01-15T10:39:40.919Z,0.95
2024-01-15T10:41:42.841Z,0.98
2024-01-15T10:43:46.389Z,0.98
2024-01-15T10:45:49.682Z,0.95
2024-01-15T10:47:51.651Z,0.89
2024-01-15T10:49:54.234Z,0.86
2024-01-15T10:51:57.749Z,0.80
2024-01-15T10:54:01.233Z,0.79
2024-01-15T10:56:05.103Z,0.77
2024-01-15T10:58:08.735Z,0.79
2024-01-15T11:00:13.827Z,0.74
2024-01-15T11:02:16.581Z,0.71
2024-01-15T11:04:18.572Z,0.65
2024-01-15T11:06:21.363Z,0.66
2024-01-15T11:08:25.802Z,0.69
2024-01-15T11:10:58.671Z,0.77
2024-01-15T11:13:00.459Z,0.84
2024-01-15T11:15:05.732Z,0.94
2024-01-15T11:17:08.061Z,1.09
2024-01-15T11:19:10.422Z,1.25
2024-01-15T11:21:16.377Z,1.55
2024-01-15T11:23:53.343Z,1.63
2024-01-15T11:25:56.568Z,1.57
2024-01-15T11:27:58.428Z,1.52
2024-01-15T11:30:11.264Z,1.48
2024-01-15T11:32:13.092Z,1.41
2024-01-15T11:34:14.877Z,1.40
2024-01-15T11:36:16.809Z,1.45
2024-01-15T11:38:30.511Z,1.54
2024-01-15T11:40:35.370Z,1.52
2024-01-15T11:42:37.319Z,1.47
2024-01-15T11:44:40.046Z,1.48
2024-01-15T11:46:49.050Z,1.42
2024-01-15T11:49:01.718Z,1.40
2024-01-15T11:51:04.347Z,1.42
2024-01-15T11:53:15.814Z,1.43
2024-01-15T11:55:29.864Z,1.50
2024-01-15T11:57:41.252Z,1.48
2024-01-15T11:59:43.385Z,1.47
2024-01-15T12:01:45.472Z,1.46
2024-01-15T12:03:48.787Z,1.43
2024-01-15T12:05:51.090Z,1.43
2024-01-15T12:07:52.820Z,1.44
2024-01-15T12:09:54.687Z,1.42
2024-01-15T12:12:08.729Z,1.42
2024-01-15T12:14:10.493Z,1.35
2024-01-15T12:16:13.909Z,1.33
2024-01-15T12:18:18.524Z,1.31
2024-01-15T12:20:20.736Z,1.31
2024-01-15T12:22:22.489Z,1.29
2024-01-15T12:24:24.438Z,1.26
2024-01-15T12:26:26.315Z,1.25
2024-01-15T12:28:29.513Z,1.21
2024-01-15T12:30:35.585Z,1.22
2024-01-15T12:32:38.204Z,1.21
2024-01-15T12:34:40.062Z,1.21
2024-01-15T12:36:42.404Z,1.26
2024-01-15T12:38:45.600Z,1.31
2024-01-15T12:40:49.965Z,1.40
2024-01-15T12:42:51.842Z,1.51
2024-01-15T12:44:53.693Z,1.56
2024-01-15T12:46:56.103Z,1.58
2024-01-15T12:48:58.741Z,1.58
2024-01-15T12:51:00.669Z,1.60
2024-01-15T12:53:03.232Z,1.56
2024-01-15T12:55:08.238Z,1.54
2024-01-15T12:57:09.953Z,1.49
2024-01-15T12:59:11.707Z,1.41
2024-01-15T13:01:13.597Z,1.35
2024-01-15T13:03:15.506Z,1.24
2024-01-15T13:05:18.257Z,1.16
2024-01-15T13:07:20.386Z,1.06
2024-01-15T13:09:22.253Z,1.01
2024-01-15T13:11:24.041Z,0.97
2024-01-15T13:13:26.005Z,0.94
2024-01-15T13:15:28.016Z,0.85
2024-01-15T13:17:30.050Z,0.86
2024-01-15T13:19:32.001Z,0.89
2024-01-15T13:21:33.915Z,0.93
2024-01-15T13:23:35.669Z,0.97
2024-01-15T13:25:39.505Z,1.01
2024-01-15T13:27:42.268Z,1.05
2024-01-15T13:29:44.722Z,1.04
2024-01-15T13:31:47.837Z,1.00
2024-01-15T13:33:49.710Z,0.97
2024-01-15T13:35:51.516Z,0.92
2024-01-15T13:37:54.375Z,0.84
2024-01-15T13:39:57.720Z,0.79
2024-01-15T13:41:59.534Z,0.71
2024-01-15T13:44:01.263Z,0.65
2024-01-15T13:46:06.076Z,0.57
2024-01-15T13:48:09.464Z,0.51
2024-01-15T13:50:11.450Z,0.49
2024-01-15T13:52:14.287Z,0.47
2024-01-15T13:54:16.217Z,0.47
2024-01-15T13:56:20.314Z,0.48
2024-01-15T13:58:23.210Z,0.48
2024-01-15T14:00:25.061Z,0.49
2024-01-15T14:02:27.864Z,0.55
2024-01-15T14:04:29.845Z,0.58
2024-01-15T14:06:31.704Z,0.57
2024-01-15T14:08:33.502Z,0.60
2024-01-15T14:10:35.340Z,0.63
2024-01-15T14:12:41.062Z,0.61
2024-01-15T14:14:42.818Z,0.65
2024-01-15T14:16:44.534Z,0.66
2024-01-15T14:18:46.434Z,0.66
2024-01-15T14:20:49.249Z,0.67
2024-01-15T14:22:51.026Z,0.67
2024-01-15T14:24:53.669Z,0.67
2024-01-15T14:26:55.547Z,0.69
2024-01-15T14:28:57.288Z,0.68
2024-01-15T14:31:02.078Z,0.67
2024-01-15T14:33:04.040Z,0.70
2024-01-15T14:35:07.276Z,0.71
2024-01-15T14:37:09.058Z,0.72
2024-01-15T14:39:11.515Z,0.72
2024-01-15T14:41:13.304Z,0.73
2024-01-15T14:43:15.031Z,0.73
2024-01-15T14:45:16.841Z,0.72
2024-01-15T14:47:18.595Z,0.72
2024-01-15T14:49:20.463Z,0.70
2024-01-15T14:51:22.439Z,0.69
2024-01-15T14:53:24.217Z,0.69
2024-01-15T14:55:26.644Z,0.67
2024-01-15T14:57:28.419Z,0.66
2024-01-15T14:59:31.052Z,0.66
2024-01-15T15:01:32.962Z,0.66
2024-01-15T15:03:34.910Z,0.66
2024-01-15T15:05:37.029Z,0.65
2024-01-15T15:07:39.910Z,0.63
2024-01-15T15:09:41.823Z,0.59
2024-01-15T15:11:43.609Z,0.62
2024-01-15T15:13:46.188Z,0.62
2024-01-15T15:15:48.174Z,0.59
2024-01-15T15:17:49.957Z,0.59
2024-01-15T15:19:55.156Z,0.59
2024-01-15T15:21:57.312Z,0.59
2024-01-15T15:23:59.113Z,0.60
2024-01-15T15:26:00.936Z,0.58
2024-01-15T15:28:03.436Z,0.58
2024-01-15T15:30:05.899Z,0.59
2024-01-15T15:32:07.654Z,0.59
2024-01-15T15:34:09.789Z,0.59
2024-01-15T15:36:11.924Z,0.59
2024-01-15T15:38:13.653Z,0.57
2024-01-15T15:40:15.534Z,0.54
2024-01-15T15:42:17.396Z,0.54
2024-01-15T15:44:19.203Z,0.49
2024-01-15T15:46:21.078Z,0.49
2024-01-15T15:48:22.964Z,0.48
2024-01-15T15:50:25.007Z,0.49
2024-01-15T15:52:26.860Z,0.45
2024-01-15T15:54:28.651Z,0.43
2024-01-15T15:56:30.394Z,0.37
2024-01-15T15:58:32.361Z,0.38
2024-01-15T16:00:34.203Z,0.35
2024-01-15T16:02:36.192Z,0.33
2024-01-15T16:04:38.043Z,0.31
2024-01-15T16:06:39.983Z,0.32
2024-01-15T16:08:42.001Z,0.30
2024-01-15T16:10:47.600Z,0.33
2024-01-15T16:12:49.434Z,0.31
2024-01-15T16:14:51.246Z,0.31
2024-01-15T16:23:13.288Z,0.30
2024-01-15T16:23:24.535Z,0.31
2024-01-15T16:23:37.583Z,0.30
2024-01-15T16:24:16.006Z,0.30
2024-01-15T16:26:24.520Z,0.34
2024-01-15T16:28:26.610Z,0.36
2024-01-15T16:30:33.778Z,0.39
2024-01-15T16:32:43.562Z,0.38
2024-01-15T16:34:45.350Z,0.42
2024-01-15T16:36:47.095Z,0.41
2024-01-15T16:38:48.896Z,0.43
2024-01-15T16:40:50.929Z,0.43
2024-01-15T16:42:52.676Z,0.42
2024-01-15T16:44:54.379Z,0.44
2024-01-15T16:47:03.677Z,0.45
2024-01-15T16:49:11.434Z,0.45
2024-01-15T16:51:13.505Z,0.45
2024-01-15T16:53:15.388Z,0.45
2024-01-15T16:55:18.219Z,0.44
2024-01-15T16:57:20.020Z,0.41
2024-01-15T16:59:21.767Z,0.38
2024-01-15T17:01:24.288Z,0.37
2024-01-15T17:03:26.135Z,0.38
2024-01-15T17:05:28.265Z,0.37
2024-01-15T17:07:30.092Z,0.38
2024-01-15T17:09:31.810Z,0.39
2024-01-15T17:11:33.780Z,0.39
2024-01-15T17:13:35.646Z,0.38
2024-01-15T17:15:38.486Z,0.37
2024-01-15T17:17:40.257Z,0.37
2024-01-15T17:19:42.014Z,0.38
2024-01-15T17:21:43.737Z,0.39
2024-01-15T17:23:45.918Z,0.37
2024-01-15T17:25:47.791Z,0.40
2024-01-15T17:27:49.582Z,0.39
2024-01-15T17:29:53.193Z,0.40
2024-01-15T17:31:54.947Z,0.41
2024-01-15T17:33:59.739Z,0.40
2024-01-15T17:36:02.106Z,0.37
2024-01-15T17:38:04.146Z,0.36
2024-01-15T17:40:07.195Z,0.35
2024-01-15T17:42:10.250Z,0.33
2024-01-15T17:44:16.121Z,0.33
2024-01-15T17:46:17.840Z,0.34
2024-01-15T17:48:19.610Z,0.35
2024-01-15T17:50:21.687Z,0.34
2024-01-15T17:52:24.735Z,0.33
2024-01-15T17:54:26.642Z,0.33
2024-01-15T17:56:29.163Z,0.33
2024-01-15T17:58:32.117Z,0.33
2024-01-15T18:00:33.942Z,0.34
2024-01-15T18:02:36.076Z,0.31
2024-01-15T18:04:37.947Z,0.33
2024-01-15T18:06:39.822Z,0.31
2024-01-15T18:08:41.732Z,0.31
2024-01-15T18:10:43.601Z,0.30
2024-01-15T18:12:45.476Z,0.31
2024-01-15T18:14:47.210Z,0.31
2024-01-15T18:16:52.251Z,0.23
2024-01-15T18:18:54.295Z,0.21
2024-01-15T18:20:56.147Z,0.16
2024-01-15T18:22:57.950Z,0.14
2024-01-15T18:24:59.729Z,0.16
2024-01-15T18:27:04.489Z,0.15
2024-01-15T18:29:06.192Z,0.17
2024-01-15T18:31:08.734Z,0.18
2024-01-15T18:33:10.645Z,0.20
2024-01-15T18:35:12.479Z,0.22
2024-01-15T18:37:14.570Z,0.23
2024-01-15T18:39:18.170Z,0.26
2024-01-15T18:41:21.660Z,0.23
2024-01-15T18:43:23.575Z,0.26
2024-01-15T18:45:25.403Z,0.29
2024-01-15T18:47:27.244Z,0.26
2024-01-15T18:49:29.142Z,0.27
2024-01-15T18:51:31.041Z,0.26
2024-01-15T18:53:32.888Z,0.24
2024-01-15T18:55:34.694Z,0.22
2024-01-15T18:57:36.538Z,0.23
2024-01-15T18:59:39.053Z,0.23
2024-01-15T19:01:41.130Z,0.27
2024-01-15T19:03:42.981Z,0.28
2024-01-15T19:05:45.714Z,0.27
2024-01-15T19:07:47.840Z,0.27
2024-01-15T19:09:49.590Z,0.29
2024-01-15T19:11:51.293Z,0.29
2024-01-15T19:13:52.992Z,0.30
2024-01-15T19:15:54.864Z,0.31
2024-01-15T19:17:56.701Z,0.33
2024-01-15T19:19:58.539Z,0.32
2024-01-15T19:22:00.271Z,0.30
2024-01-15T19:24:03.710Z,0.26
2024-01-15T19:26:05.683Z,0.23
2024-01-15T19:28:08.510Z,0.20
2024-01-15T19:30:12.671Z,0.21
2024-01-15T19:32:14.503Z,0.19
2024-01-15T19:34:16.612Z,0.18
2024-01-15T19:36:25.992Z,0.19
2024-01-15T19:38:27.792Z,0.16
2024-01-15T19:40:30.924Z,0.20
2024-01-15T19:42:32.724Z,0.17
2024-01-15T19:44:34.545Z,0.16
2024-01-15T19:46:36.566Z,0.18
2024-01-15T19:48:38.438Z,0.15
2024-01-15T19:50:41.622Z,0.15
2024-01-15T19:52:43.461Z,0.16
2024-01-15T19:54:45.253Z,0.19
2024-01-15T19:56:47.094Z,0.20
2024-01-15T19:58:48.887Z,0.21
2024-01-15T20:00:50.824Z,0.23
2024-01-15T20:02:52.736Z,0.23
2024-01-15T20:04:54.472Z,0.26
2024-01-15T20:06:56.282Z,0.23
2024-01-15T20:08:58.760Z,0.26
2024-01-15T20:11:00.596Z,0.25
2024-01-15T20:13:02.725Z,0.25
2024-01-15T20:15:04.976Z,0.27
2024-01-15T20:17:06.757Z,0.27
2024-01-15T20:19:08.668Z,0.26
2024-01-15T20:21:11.661Z,0.24
2024-01-15T20:23:13.712Z,0.22
2024-01-15T20:25:15.491Z,0.22
2024-01-15T20:27:17.728Z,0.21
2024-01-15T20:29:20.212Z,0.21
2024-01-15T20:31:22.014Z,0.20
2024-01-15T20:33:23.962Z,0.17
2024-01-15T20:35:25.826Z,0.16
2024-01-15T20:37:27.883Z,0.17
2024-01-15T20:39:29.580Z,0.13
2024-01-15T20:41:31.407Z,0.15
2024-01-15T20:43:33.976Z,0.13
2024-01-15T20:45:35.673Z,0.13
2024-01-15T20:47:37.495Z,0.12
2024-01-15T20:49:39.684Z,0.11
2024-01-15T20:51:41.428Z,0.10
2024-01-15T20:53:43.506Z,0.10
2024-01-15T20:55:45.304Z,0.08
2024-01-15T20:57:47.042Z,0.09
2024-01-15T20:59:51.810Z,0.06
2024-01-15T21:01:53.879Z,0.06
2024-01-15T21:03:55.639Z,0.06
2024-01-15T21:05:58.563Z,0.04
2024-01-15T21:08:00.442Z,0.03
2024-01-15T21:10:02.281Z,0.04
2024-01-15T21:12:06.193Z,0.07
2024-01-15T21:14:09.158Z,0.10
2024-01-15T21:16:10.954Z,0.10
2024-01-15T21:18:13.210Z,0.11
2024-01-15T21:20:15.243Z,0.12
2024-01-15T21:22:18.281Z,0.13
2024-01-15T21:24:23.822Z,0.14
2024-01-15T21:26:25.618Z,0.14
2024-01-15T21:28:28.974Z,0.13
2024-01-15T21:30:34.376Z,0.13
2024-01-15T21:32:36.228Z,0.14
2024-01-15T21:34:38.384Z,0.14
2024-01-15T21:36:40.195Z,0.13
2024-01-15T21:38:42.009Z,0.14
2024-01-15T21:40:43.983Z,0.13
2024-01-15T21:42:45.727Z,0.16
2024-01-15T21:44:47.567Z,0.16
2024-01-15T21:46:49.352Z,0.17
2024-01-15T21:48:52.417Z,0.20
2024-01-15T21:50:54.266Z,0.21
2024-01-15T21:52:56.037Z,0.19
2024-01-15T21:54:57.720Z,0.21
2024-01-15T21:56:59.555Z,0.22
2024-01-15T21:59:01.484Z,0.21
2024-01-15T22:01:03.221Z,0.22
2024-01-15T22:03:06.715Z,0.24
2024-01-15T22:05:09.799Z,0.22
2024-01-15T22:07:11.585Z,0.23
2024-01-15T22:09:13.514Z,0.27
2024-01-15T22:11:15.797Z,0.25
2024-01-15T22:13:17.526Z,0.27
2024-01-15T22:15:19.697Z,0.24
2024-01-15T22:17:21.437Z,0.23
2024-01-15T22:19:23.338Z,0.22
2024-01-15T22:21:25.085Z,0.22
2024-01-15T22:23:26.845Z,0.20
2024-01-15T22:25:28.666Z,0.22
2024-01-15T22:27:30.412Z,0.19
2024-01-15T22:29:32.159Z,0.20
2024-01-15T22:31:33.980Z,0.19
2024-01-15T22:33:36.069Z,0.16
2024-01-15T22:35:38.129Z,0.16
2024-01-15T22:37:40.031Z,0.15
2024-01-15T22:39:41.875Z,0.15
2024-01-15T22:41:43.745Z,0.15
2024-01-15T22:43:46.916Z,0.16
2024-01-15T22:45:48.739Z,0.15
2024-01-15T22:47:50.664Z,0.15
2024-01-15T22:49:53.152Z,0.15
2024-01-15T22:51:54.875Z,0.14
2024-01-15T22:53:56.645Z,0.12
2024-01-15T22:55:58.510Z,0.11
2024-01-15T22:58:00.328Z,0.10
2024-01-15T23:00:02.158Z,0.11
2024-01-15T23:02:04.085Z,0.09
2024-01-15T23:04:06.014Z,0.08
2024-01-15T23:06:18.208Z,0.09
2024-01-15T23:08:20.092Z,0.09
2024-01-15T23:10:21.929Z,0.10
2024-01-15T23:12:23.629Z,0.08
2024-01-15T23:14:25.493Z,0.08
2024-01-15T23:16:27.214Z,0.06
2024-01-15T23:18:28.981Z,0.01
2024-01-15T23:20:30.981Z,-0.05
2024-01-15T23:22:32.715Z,-0.07
2024-01-15T23:24:34.445Z,-0.11
2024-01-15T23:26:36.179Z,-0.18
2024-01-15T23:28:37.927Z,-0.19
2024-01-15T23:30:39.630Z,-0.23
2024-01-15T23:32:42.010Z,-0.25
2024-01-15T23:34:43.843Z,-0.29
2024-01-15T23:36:46.340Z,-0.35
2024-01-15T23:38:48.141Z,-0.33
2024-01-15T23:40:49.869Z,-0.35
2024-01-15T23:42:51.886Z,-0.37
2024-01-15T23:44:53.660Z,-0.40
2024-01-15T23:46:55.372Z,-0.42
2024-01-15T23:48:57.234Z,-0.44
2024-01-15T23:50:59.009Z,-0.44
2024-01-15T23:53:00.821Z,-0.43
2024-01-15T23:55:02.657Z,-0.44
2024-01-15T23:57:05.516Z,-0.45
2024-01-15T23:59:07.258Z,-0.46
